logo
Rechercher aéroport 
image banner adimage banner adimage banner ad
image banner ad

KMCC - Mc Clellan Airfield

Situé à Sacramento, United States

ICAO - MCC, IATA - MCC

Données fournies par Airmate  

Information générale

Coordonnées: N38°40'4" W121°24'2"
Élévation : 76 feet MSL.
Variation magnétique : 17° East
Voir autres Aéroports à California

Données opérationnelles

Special qualification required
Heure actuelle UTC:
Heure actuelle locale:
Météo
METAR: KMCC 011815Z AUTO 15005KT 10SM 23/11 A2980 RMK AO2
TAF: KMCC 011721Z 0118/0218 VRB05KT P6SM SKC FM020000 22008KT P6SM SKC FM020700 16007KT P6SM SKC
Voir NOTAMs / SUP AIP / TFR affectant cet aéroport [VIEW]
Fréquences de communication: [VIEW]

Pistes:

Identifiant RWYQFULongueur (ft)Largeur (ft)SurfaceLDA (ft)
16180°10599150CONC
3410599150CONC

Coordonnées de l'aéroport

Adresse: Sacramento United States

Autres services d'aviation

Écoles de pilotage

Flying Panthers Flight School, Inc

Flying Panthers Flight School, Inc

Vue satellite de KMCC